Time;durP1;ratioP1;P1;durP2;ratioP2;P2;SDS_P1;SDS_P2;PMS_P1;PMS_P2;Temp;Humidity;BMP_temperature;BMP_pressure;BME280_temperature;BME280_humidity;BME280_pressure;Samples;Min_cycle;Max_cycle;Signal;HPM_P1;HPM_P2
2021/03/08 00:01:23;;;;;;;;;34.33;32.00;;;;;;;;5171149;27;8714;-73
2021/03/08 00:03:49;;;;;;;;;42.33;35.00;;;;;;;;5170308;27;8685;-72
2021/03/08 00:06:15;;;;;;;;;32.00;29.00;;;;;;;;5170978;27;8757;-73
2021/03/08 00:08:42;;;;;;;;;39.00;34.67;;;;;;;;5170891;27;9441;-73
2021/03/08 00:11:08;;;;;;;;;22.00;21.67;;;;;;;;5169165;27;8684;-73
2021/03/08 00:13:34;;;;;;;;;36.00;30.67;;;;;;;;5171921;27;8754;-73
2021/03/08 00:16:00;;;;;;;;;36.33;31.00;;;;;;;;5168816;27;8677;-73
2021/03/08 00:18:26;;;;;;;;;35.33;32.00;;;;;;;;5172194;27;8730;-72
2021/03/08 00:20:52;;;;;;;;;36.67;32.33;;;;;;;;5169021;27;8724;-72
2021/03/08 00:23:18;;;;;;;;;35.00;32.00;;;;;;;;5170598;27;8749;-72
2021/03/08 00:25:45;;;;;;;;;35.67;34.33;;;;;;;;5170409;27;8742;-73
2021/03/08 00:28:11;;;;;;;;;37.00;30.33;;;;;;;;5169773;27;8794;-73
2021/03/08 00:30:37;;;;;;;;;34.67;31.00;;;;;;;;5170639;27;8659;-72
2021/03/08 00:33:03;;;;;;;;;35.33;34.00;;;;;;;;5168433;27;8689;-73
2021/03/08 00:35:29;;;;;;;;;38.00;35.33;;;;;;;;5172045;27;9326;-73
2021/03/08 00:37:55;;;;;;;;;41.67;35.33;;;;;;;;5167536;27;8723;-73
2021/03/08 00:40:23;;;;;;;;;36.33;32.67;;;;;;;;5168667;27;8706;-72
2021/03/08 00:42:50;;;;;;;;;43.33;35.00;;;;;;;;5170880;27;8685;-72
2021/03/08 00:45:16;;;;;;;;;35.00;34.00;;;;;;;;5169738;27;8770;-71
2021/03/08 00:47:43;;;;;;;;;37.33;32.33;;;;;;;;5169723;27;8729;-72
2021/03/08 00:50:13;;;;;;;;;36.00;32.67;;;;;;;;5170830;27;8667;-72
2021/03/08 00:52:39;;;;;;;;;31.33;28.33;;;;;;;;5169628;27;8760;-73
2021/03/08 00:55:05;;;;;;;;;38.67;34.67;;;;;;;;5171250;27;8753;-73
2021/03/08 00:57:31;;;;;;;;;40.33;35.33;;;;;;;;5168152;27;8687;-72
2021/03/08 00:59:58;;;;;;;;;43.00;39.00;;;;;;;;5166851;27;8689;-72
2021/03/08 01:02:24;;;;;;;;;44.33;40.33;;;;;;;;5171699;27;8706;-72
2021/03/08 01:04:50;;;;;;;;;45.67;38.00;;;;;;;;5168584;27;8707;-72
2021/03/08 01:07:16;;;;;;;;;46.33;40.33;;;;;;;;5170122;27;8665;-72
2021/03/08 01:09:42;;;;;;;;;43.00;40.00;;;;;;;;5169666;27;8651;-74
2021/03/08 01:12:09;;;;;;;;;45.67;37.33;;;;;;;;5169084;27;8779;-74
2021/03/08 01:14:34;;;;;;;;;43.67;38.00;;;;;;;;5170583;27;8675;-74
2021/03/08 01:17:01;;;;;;;;;46.00;37.67;;;;;;;;5167723;27;8669;-74
2021/03/08 01:19:27;;;;;;;;;41.00;37.00;;;;;;;;5163430;27;8692;-74
2021/03/08 01:21:53;;;;;;;;;43.33;37.33;;;;;;;;5170956;27;9337;-74
2021/03/08 01:24:19;;;;;;;;;35.00;35.00;;;;;;;;5168483;27;8687;-73
2021/03/08 01:26:45;;;;;;;;;43.33;38.67;;;;;;;;5169425;27;8707;-73
2021/03/08 01:29:12;;;;;;;;;41.67;34.00;;;;;;;;5168969;27;8687;-73
2021/03/08 01:31:38;;;;;;;;;32.33;32.33;;;;;;;;5168808;27;8768;-74
2021/03/08 01:34:05;;;;;;;;;41.67;32.67;;;;;;;;5170665;27;8663;-75
2021/03/08 01:36:31;;;;;;;;;29.33;20.67;;;;;;;;5167102;27;8672;-75
2021/03/08 01:38:57;;;;;;;;;37.33;34.67;;;;;;;;5170611;27;8691;-75
2021/03/08 01:41:23;;;;;;;;;43.67;38.00;;;;;;;;5168011;27;8700;-75
2021/03/08 01:43:49;;;;;;;;;35.67;34.33;;;;;;;;5169910;27;8752;-75
2021/03/08 01:46:15;;;;;;;;;36.67;31.33;;;;;;;;5170320;27;9319;-75
2021/03/08 01:48:40;;;;;;;;;29.67;25.33;;;;;;;;5172276;27;8680;-74
2021/03/08 01:51:07;;;;;;;;;33.67;30.33;;;;;;;;5172920;27;8709;-74
2021/03/08 01:53:35;;;;;;;;;37.33;33.33;;;;;;;;5171533;27;8825;-74
2021/03/08 01:56:01;;;;;;;;;39.33;37.00;;;;;;;;5173743;27;8650;-74
2021/03/08 01:58:27;;;;;;;;;40.00;36.33;;;;;;;;5170909;27;8752;-74
2021/03/08 02:00:53;;;;;;;;;42.00;38.33;;;;;;;;5173993;27;8663;-74
2021/03/08 02:03:19;;;;;;;;;35.67;33.67;;;;;;;;5171446;27;8683;-74
2021/03/08 02:05:47;;;;;;;;;42.33;34.67;;;;;;;;5173051;27;9618;-74
2021/03/08 02:08:15;;;;;;;;;45.67;37.00;;;;;;;;5172535;27;8667;-73
2021/03/08 02:10:41;;;;;;;;;38.00;35.67;;;;;;;;5171630;27;8759;-74
2021/03/08 02:13:19;;;;;;;;;42.67;36.67;;;;;;;;5172946;27;8750;-74
2021/03/08 02:15:50;;;;;;;;;28.00;27.00;;;;;;;;5172392;27;8669;-73
2021/03/08 02:18:22;;;;;;;;;33.67;33.67;;;;;;;;5171568;27;8742;-74
2021/03/08 02:21:01;;;;;;;;;33.33;33.00;;;;;;;;5173309;27;8719;-73
2021/03/08 02:23:41;;;;;;;;;36.33;33.33;;;;;;;;5167167;27;8752;-74
2021/03/08 02:26:16;;;;;;;;;35.67;33.00;;;;;;;;5168794;27;8773;-74
2021/03/08 02:28:55;;;;;;;;;31.67;29.67;;;;;;;;5172849;27;8675;-74
2021/03/08 02:31:22;;;;;;;;;37.00;31.33;;;;;;;;5173140;27;9549;-74
2021/03/08 02:33:52;;;;;;;;;33.00;32.00;;;;;;;;5171169;27;9439;-74
2021/03/08 02:36:19;;;;;;;;;42.33;35.33;;;;;;;;5173232;27;8673;-74
2021/03/08 02:38:50;;;;;;;;;36.67;31.33;;;;;;;;5171839;27;8758;-74
2021/03/08 02:41:19;;;;;;;;;37.67;32.33;;;;;;;;5172866;27;8700;-74
2021/03/08 02:43:45;;;;;;;;;34.00;31.33;;;;;;;;5171650;27;8666;-74
2021/03/08 02:46:13;;;;;;;;;38.67;31.67;;;;;;;;5172101;27;8689;-73
2021/03/08 02:48:42;;;;;;;;;38.00;34.33;;;;;;;;5171950;27;8663;-74
2021/03/08 02:51:08;;;;;;;;;45.00;36.33;;;;;;;;5174353;27;8758;-74
2021/03/08 02:53:36;;;;;;;;;37.67;33.33;;;;;;;;5170310;27;8707;-75
2021/03/08 02:56:05;;;;;;;;;37.67;36.67;;;;;;;;5173010;27;8816;-74
2021/03/08 02:58:32;;;;;;;;;33.33;30.33;;;;;;;;5169940;27;8704;-74
2021/03/08 03:00:59;;;;;;;;;37.33;33.00;;;;;;;;5172803;27;8792;-74
2021/03/08 03:03:26;;;;;;;;;39.67;28.00;;;;;;;;5165741;27;8669;-75
2021/03/08 03:05:55;;;;;;;;;33.00;30.00;;;;;;;;5172877;27;8850;-75
2021/03/08 03:08:21;;;;;;;;;32.00;27.67;;;;;;;;5170699;27;8684;-75
2021/03/08 03:10:47;;;;;;;;;33.67;30.67;;;;;;;;5172396;27;8768;-74
2021/03/08 03:13:14;;;;;;;;;38.33;37.67;;;;;;;;5171091;27;8655;-74
2021/03/08 03:15:41;;;;;;;;;35.67;32.00;;;;;;;;5170613;27;9713;-74
2021/03/08 03:18:07;;;;;;;;;43.33;35.00;;;;;;;;5171955;27;8770;-74
2021/03/08 03:20:34;;;;;;;;;29.00;27.67;;;;;;;;5170035;27;8661;-74
2021/03/08 03:23:02;;;;;;;;;37.00;32.67;;;;;;;;5173271;27;8663;-73
2021/03/08 03:25:29;;;;;;;;;38.00;33.00;;;;;;;;5169342;27;8736;-74
2021/03/08 03:27:55;;;;;;;;;33.00;30.00;;;;;;;;5165558;27;8775;-73
2021/03/08 03:30:23;;;;;;;;;31.00;28.67;;;;;;;;5172481;27;8738;-74
2021/03/08 03:32:49;;;;;;;;;35.67;32.33;;;;;;;;5169476;27;9422;-73
2021/03/08 03:35:16;;;;;;;;;33.67;33.67;;;;;;;;5172145;27;8681;-75
2021/03/08 03:37:43;;;;;;;;;39.67;32.33;;;;;;;;5171022;27;8754;-74
2021/03/08 03:40:12;;;;;;;;;38.00;31.00;;;;;;;;5169951;27;8744;-75
2021/03/08 03:42:38;;;;;;;;;46.25;39.00;;;;;;;;5171536;27;8663;-74
2021/03/08 03:45:05;;;;;;;;;38.00;34.00;;;;;;;;5169200;27;8705;-73
2021/03/08 03:47:32;;;;;;;;;35.33;28.33;;;;;;;;5172219;27;8738;-73
2021/03/08 03:49:58;;;;;;;;;34.67;28.67;;;;;;;;5168788;27;8729;-73
2021/03/08 03:52:24;;;;;;;;;37.00;33.67;;;;;;;;5165453;27;8701;-74
2021/03/08 03:54:50;;;;;;;;;37.00;34.00;;;;;;;;5172155;27;8675;-74
2021/03/08 03:57:17;;;;;;;;;35.00;29.67;;;;;;;;5170080;27;8742;-73
2021/03/08 03:59:46;;;;;;;;;37.00;34.00;;;;;;;;5170191;27;8672;-73
2021/03/08 04:02:15;;;;;;;;;36.00;33.00;;;;;;;;5170241;27;8651;-73
2021/03/08 04:04:45;;;;;;;;;36.33;32.33;;;;;;;;5170872;27;9473;-73
2021/03/08 04:07:13;;;;;;;;;38.33;31.00;;;;;;;;5170668;27;8690;-74
2021/03/08 04:09:39;;;;;;;;;36.33;31.00;;;;;;;;5169921;27;8657;-74
2021/03/08 04:12:09;;;;;;;;;30.00;27.00;;;;;;;;5171321;27;8746;-73
2021/03/08 04:14:36;;;;;;;;;27.00;27.00;;;;;;;;5169750;27;8750;-74
2021/03/08 04:17:02;;;;;;;;;36.33;30.67;;;;;;;;5170825;27;8702;-73
2021/03/08 04:19:29;;;;;;;;;35.00;29.67;;;;;;;;5167925;27;8767;-74
2021/03/08 04:22:04;;;;;;;;;31.67;28.67;;;;;;;;5171819;27;8661;-73
2021/03/08 04:24:31;;;;;;;;;33.33;30.33;;;;;;;;5165519;27;8708;-73
2021/03/08 04:26:59;;;;;;;;;35.33;32.00;;;;;;;;5171891;27;8691;-74
2021/03/08 04:29:25;;;;;;;;;26.67;26.33;;;;;;;;5164457;27;9503;-74
2021/03/08 04:31:52;;;;;;;;;29.67;29.00;;;;;;;;5171431;27;8759;-74
2021/03/08 04:34:19;;;;;;;;;36.00;32.00;;;;;;;;5169673;27;8681;-74
2021/03/08 04:36:45;;;;;;;;;32.33;29.33;;;;;;;;5170897;27;8661;-73
2021/03/08 04:39:12;;;;;;;;;35.33;29.67;;;;;;;;5169991;27;8706;-73
2021/03/08 04:41:38;;;;;;;;;32.67;30.67;;;;;;;;5169299;27;8673;-74
2021/03/08 04:44:07;;;;;;;;;25.50;18.25;;;;;;;;5170974;27;8754;-74
2021/03/08 04:46:33;;;;;;;;;35.33;30.67;;;;;;;;5168413;27;8661;-74
2021/03/08 04:49:01;;;;;;;;;34.67;31.00;;;;;;;;5171932;27;8659;-74
2021/03/08 04:51:28;;;;;;;;;31.00;30.67;;;;;;;;5168347;27;8845;-74
2021/03/08 04:53:54;;;;;;;;;31.67;26.67;;;;;;;;5164328;27;8729;-73
2021/03/08 04:56:20;;;;;;;;;28.00;25.00;;;;;;;;5171624;27;8761;-72
2021/03/08 04:58:46;;;;;;;;;35.33;28.00;;;;;;;;5168472;27;8709;-74
2021/03/08 05:01:14;;;;;;;;;34.25;31.50;;;;;;;;5169880;27;8687;-74
2021/03/08 05:03:41;;;;;;;;;36.00;28.00;;;;;;;;5170108;27;8754;-73
2021/03/08 05:06:10;;;;;;;;;26.33;20.33;;;;;;;;5168924;27;8745;-72
2021/03/08 05:08:39;;;;;;;;;30.33;26.67;;;;;;;;5170085;27;9572;-74
2021/03/08 05:11:07;;;;;;;;;36.33;32.33;;;;;;;;5169214;27;8760;-73
2021/03/08 05:13:35;;;;;;;;;37.75;32.25;;;;;;;;5170778;27;8757;-72
2021/03/08 05:16:02;;;;;;;;;31.50;26.75;;;;;;;;5168044;27;8703;-73
2021/03/08 05:18:28;;;;;;;;;33.67;28.67;;;;;;;;5172006;27;8721;-73
2021/03/08 05:20:55;;;;;;;;;33.75;30.25;;;;;;;;5168897;27;8672;-73
2021/03/08 05:23:22;;;;;;;;;35.00;33.50;;;;;;;;5174901;27;9498;-73
2021/03/08 05:25:49;;;;;;;;;38.75;34.50;;;;;;;;5171680;27;8813;-73
2021/03/08 05:28:15;;;;;;;;;35.50;31.00;;;;;;;;5173794;27;8672;-73
2021/03/08 05:30:41;;;;;;;;;44.50;34.50;;;;;;;;5172816;27;8905;-73
2021/03/08 05:33:11;;;;;;;;;31.25;26.75;;;;;;;;5172073;27;8861;-73
2021/03/08 05:35:37;;;;;;;;;30.67;25.67;;;;;;;;5173215;27;8663;-73
2021/03/08 05:38:04;;;;;;;;;30.25;28.25;;;;;;;;5172375;27;9722;-73
2021/03/08 05:40:37;;;;;;;;;35.50;32.50;;;;;;;;5174172;27;8659;-73
2021/03/08 05:43:10;;;;;;;;;30.00;28.25;;;;;;;;5172359;27;8748;-73
2021/03/08 05:45:39;;;;;;;;;36.75;31.25;;;;;;;;5173340;27;9564;-73
2021/03/08 05:48:20;;;;;;;;;31.00;29.25;;;;;;;;5172046;27;9448;-73
2021/03/08 05:51:01;;;;;;;;;34.50;31.00;;;;;;;;5171482;27;8719;-73
2021/03/08 05:53:37;;;;;;;;;27.00;23.75;;;;;;;;5168339;27;8695;-72
2021/03/08 05:56:27;;;;;;;;;35.50;31.75;;;;;;;;5171934;27;9082;-73
2021/03/08 05:59:04;;;;;;;;;30.25;28.00;;;;;;;;5153685;27;8757;-73
2021/03/08 06:01:51;;;;;;;;;40.00;30.75;;;;;;;;5168283;27;8716;-73
2021/03/08 06:04:26;;;;;;;;;46.00;39.00;;;;;;;;5161640;27;8720;-71
2021/03/08 06:07:10;;;;;;;;;41.00;35.50;;;;;;;;5174551;27;8647;-73
2021/03/08 06:09:45;;;;;;;;;39.25;37.75;;;;;;;;5169784;27;8811;-73
2021/03/08 06:12:15;;;;;;;;;36.00;31.00;;;;;;;;5171989;27;8755;-74
2021/03/08 06:14:43;;;;;;;;;40.00;36.50;;;;;;;;5172646;27;8692;-74
2021/03/08 06:17:12;;;;;;;;;38.75;35.50;;;;;;;;5172806;27;8655;-73
2021/03/08 06:19:38;;;;;;;;;35.00;32.50;;;;;;;;5172543;27;8770;-73
2021/03/08 06:22:07;;;;;;;;;37.00;31.25;;;;;;;;5173517;27;8727;-75
2021/03/08 06:24:36;;;;;;;;;44.75;35.75;;;;;;;;5171980;27;8745;-73
2021/03/08 06:27:02;;;;;;;;;37.25;32.25;;;;;;;;5173792;27;8777;-73
2021/03/08 06:29:30;;;;;;;;;34.00;30.50;;;;;;;;5170844;27;8676;-74
2021/03/08 06:31:57;;;;;;;;;34.75;29.25;;;;;;;;5173057;27;8771;-73
2021/03/08 06:34:23;;;;;;;;;35.00;34.50;;;;;;;;5166667;27;8673;-75
2021/03/08 06:36:49;;;;;;;;;37.75;33.25;;;;;;;;5165169;27;8694;-75
2021/03/08 06:39:15;;;;;;;;;43.00;36.00;;;;;;;;5166778;27;8737;-75
2021/03/08 06:41:41;;;;;;;;;37.25;29.75;;;;;;;;5163102;27;8689;-76
2021/03/08 06:44:08;;;;;;;;;39.25;34.00;;;;;;;;5165425;27;8700;-73
2021/03/08 06:46:34;;;;;;;;;46.75;34.75;;;;;;;;5163956;27;8768;-74
2021/03/08 06:49:02;;;;;;;;;41.50;38.00;;;;;;;;5162813;27;8657;-73
2021/03/08 06:51:28;;;;;;;;;41.00;37.25;;;;;;;;5164343;27;8693;-74
2021/03/08 06:53:54;;;;;;;;;39.25;33.25;;;;;;;;5163626;27;8728;-73
2021/03/08 06:56:20;;;;;;;;;36.00;33.50;;;;;;;;5165652;27;8678;-73
2021/03/08 06:59:02;;;;;;;;;39.25;36.00;;;;;;;;5163824;27;8794;-72
2021/03/08 07:01:30;;;;;;;;;39.25;33.50;;;;;;;;5162788;27;8685;-72
2021/03/08 07:03:56;;;;;;;;;38.75;36.50;;;;;;;;5160891;27;8657;-70
2021/03/08 07:06:23;;;;;;;;;35.75;29.50;;;;;;;;5158588;27;8748;-72
2021/03/08 07:08:49;;;;;;;;;42.00;36.75;;;;;;;;5168513;27;8781;-73
2021/03/08 07:11:16;;;;;;;;;33.50;32.25;;;;;;;;5170342;27;8708;-72
2021/03/08 07:13:42;;;;;;;;;34.00;33.00;;;;;;;;5170469;27;8713;-72
2021/03/08 07:16:08;;;;;;;;;45.25;35.50;;;;;;;;5157076;27;8672;-73
2021/03/08 07:18:34;;;;;;;;;40.75;35.25;;;;;;;;5170833;27;8919;-72
2021/03/08 07:21:17;;;;;;;;;38.25;35.25;;;;;;;;5167874;27;8677;-74
2021/03/08 07:23:44;;;;;;;;;36.67;30.67;;;;;;;;5169213;27;8678;-74
2021/03/08 07:26:11;;;;;;;;;42.50;36.75;;;;;;;;5170222;27;8813;-74
2021/03/08 07:28:37;;;;;;;;;45.25;39.75;;;;;;;;5171122;27;8659;-73
2021/03/08 07:31:03;;;;;;;;;42.00;36.50;;;;;;;;5168128;27;8902;-75
2021/03/08 07:33:30;;;;;;;;;45.25;39.25;;;;;;;;5170344;27;8699;-75
2021/03/08 07:35:58;;;;;;;;;51.50;40.75;;;;;;;;5165587;27;8662;-72
2021/03/08 07:38:32;;;;;;;;;54.25;41.25;;;;;;;;5160586;27;8746;-72
2021/03/08 07:41:13;;;;;;;;;51.00;40.50;;;;;;;;5156656;27;8717;-72
2021/03/08 07:43:39;;;;;;;;;41.67;38.00;;;;;;;;5168170;27;8645;-70
2021/03/08 07:46:05;;;;;;;;;41.33;38.00;;;;;;;;5168713;27;8762;-70
2021/03/08 07:48:31;;;;;;;;;52.25;42.00;;;;;;;;5164625;27;8693;-70
2021/03/08 07:51:04;;;;;;;;;48.00;41.00;;;;;;;;5165231;27;8754;-71
2021/03/08 07:53:31;;;;;;;;;46.00;39.33;;;;;;;;5164886;27;8700;-72
2021/03/08 07:55:58;;;;;;;;;51.00;39.00;;;;;;;;5163837;27;8665;-73
2021/03/08 07:58:28;;;;;;;;;38.33;37.33;;;;;;;;5166877;27;8729;-73
2021/03/08 08:00:54;;;;;;;;;46.75;39.25;;;;;;;;5162563;27;8663;-73
2021/03/08 08:03:20;;;;;;;;;45.67;40.00;;;;;;;;5167534;27;9653;-74
2021/03/08 08:05:50;;;;;;;;;42.67;38.00;;;;;;;;5166869;27;8759;-73
2021/03/08 08:08:16;;;;;;;;;35.67;29.67;;;;;;;;5170703;27;10808;-75
2021/03/08 08:12:30;;;;;;;;;44.00;36.00;;;;;;;;5082931;27;112413;-72
2021/03/08 08:14:59;;;;;;;;;50.33;39.00;;;;;;;;5059990;27;115222;-73
2021/03/08 08:17:26;;;;;;;;;37.00;36.00;;;;;;;;5061028;27;111974;-74
2021/03/08 08:19:52;;;;;;;;;37.33;32.33;;;;;;;;5060015;27;113723;-76
2021/03/08 08:22:20;;;;;;;;;41.00;35.33;;;;;;;;5061370;27;114108;-73
2021/03/08 08:24:47;;;;;;;;;28.33;26.00;;;;;;;;5060111;27;114273;-73
2021/03/08 08:27:15;;;;;;;;;43.00;35.67;;;;;;;;5062405;27;114066;-72
2021/03/08 08:29:42;;;;;;;;;38.00;34.33;;;;;;;;5062755;27;113981;-72
2021/03/08 08:32:08;;;;;;;;;41.67;36.00;;;;;;;;5066735;27;111936;-72
2021/03/08 08:34:36;;;;;;;;;33.67;33.67;;;;;;;;5061424;27;114923;-72
2021/03/08 08:37:06;;;;;;;;;40.00;33.67;;;;;;;;5063822;27;112052;-73
2021/03/08 08:39:32;;;;;;;;;37.33;34.33;;;;;;;;5062120;27;114600;-73
2021/03/08 08:42:12;;;;;;;;;36.00;30.00;;;;;;;;5063323;27;114266;-71
2021/03/08 08:44:39;;;;;;;;;30.67;30.33;;;;;;;;5062665;27;111993;-72
2021/03/08 08:47:23;;;;;;;;;32.33;31.67;;;;;;;;5062903;27;117150;-71
2021/03/08 08:49:51;;;;;;;;;36.33;33.00;;;;;;;;5063364;27;114413;-72
2021/03/08 08:52:17;;;;;;;;;27.25;24.75;;;;;;;;5061516;27;111994;-72
2021/03/08 08:54:50;;;;;;;;;39.33;35.67;;;;;;;;5066272;27;113774;-71
2021/03/08 08:57:19;;;;;;;;;33.50;31.00;;;;;;;;5061974;27;112769;-71
2021/03/08 08:59:49;;;;;;;;;33.50;33.00;;;;;;;;5063371;27;113313;-72
2021/03/08 09:02:31;;;;;;;;;35.25;32.50;;;;;;;;5059213;27;113500;-73
2021/03/08 11:17:17;;;;;;;;;17.50;17.00;;;;;;;;5072813;27;873026;-71
2021/03/08 11:19:43;;;;;;;;;19.50;17.00;;;;;;;;5080364;27;112661;-72
2021/03/08 11:22:10;;;;;;;;;16.25;16.25;;;;;;;;4943360;27;112484;-72
2021/03/08 11:24:43;;;;;;;;;15.25;14.75;;;;;;;;5020970;27;115326;-70
2021/03/08 11:27:10;;;;;;;;;18.75;18.00;;;;;;;;5022486;27;114424;-72
2021/03/08 11:29:36;;;;;;;;;18.75;15.00;;;;;;;;5012858;27;114148;-72
2021/03/08 11:32:02;;;;;;;;;20.75;16.00;;;;;;;;5022161;27;114193;-73
2021/03/08 11:34:41;;;;;;;;;15.50;14.50;;;;;;;;5023185;27;114110;-73
2021/03/08 11:37:11;;;;;;;;;17.00;16.25;;;;;;;;5026592;27;112230;-74
2021/03/08 11:39:38;;;;;;;;;19.50;17.75;;;;;;;;5021378;27;114008;-72
2021/03/08 11:42:06;;;;;;;;;16.25;15.50;;;;;;;;5022725;27;112327;-73
2021/03/08 11:44:32;;;;;;;;;16.00;14.75;;;;;;;;5023088;27;113418;-78
2021/03/08 11:46:58;;;;;;;;;12.00;10.50;;;;;;;;5019671;27;114446;-73
2021/03/08 11:49:25;;;;;;;;;17.50;15.75;;;;;;;;5024318;27;112178;-71
2021/03/08 11:51:51;;;;;;;;;18.50;16.25;;;;;;;;5020617;27;113776;-76
2021/03/08 11:54:18;;;;;;;;;17.75;17.00;;;;;;;;5008455;27;113605;-74
2021/03/08 11:56:44;;;;;;;;;15.75;14.75;;;;;;;;5021719;27;112578;-71
2021/03/08 11:59:10;;;;;;;;;16.00;15.00;;;;;;;;5023857;27;113983;-71
2021/03/08 12:01:36;;;;;;;;;15.25;14.25;;;;;;;;5021610;27;111891;-71
2021/03/08 12:04:03;;;;;;;;;16.50;15.25;;;;;;;;5021166;27;114385;-71
2021/03/08 12:06:29;;;;;;;;;20.00;17.50;;;;;;;;5020199;27;114286;-71
2021/03/08 12:08:56;;;;;;;;;18.25;16.25;;;;;;;;5020908;27;111826;-71
2021/03/08 12:11:22;;;;;;;;;18.75;16.00;;;;;;;;5016212;27;114362;-71
2021/03/08 12:13:48;;;;;;;;;17.00;15.50;;;;;;;;5013619;27;114883;-71
2021/03/08 12:16:14;;;;;;;;;13.00;12.00;;;;;;;;5021988;27;112309;-73
2021/03/08 12:18:40;;;;;;;;;15.25;13.25;;;;;;;;5019711;27;113789;-70
2021/03/08 12:21:06;;;;;;;;;17.50;17.50;;;;;;;;5023970;27;114059;-69
2021/03/08 12:23:32;;;;;;;;;16.75;14.25;;;;;;;;5018453;27;113687;-72
2021/03/08 12:25:59;;;;;;;;;15.75;15.75;;;;;;;;5015187;27;114460;-70
2021/03/08 12:28:25;;;;;;;;;17.00;13.00;;;;;;;;5009448;27;112187;-70
2021/03/08 12:30:51;;;;;;;;;16.25;15.50;;;;;;;;5005769;28;113527;-72
2021/03/08 12:33:18;;;;;;;;;16.75;15.25;;;;;;;;5001745;28;114158;-69
2021/03/08 12:35:44;;;;;;;;;16.50;15.75;;;;;;;;5009579;28;112094;-70
2021/03/08 12:38:10;;;;;;;;;13.25;12.25;;;;;;;;5007632;27;113510;-71
2021/03/08 12:40:36;;;;;;;;;18.50;14.25;;;;;;;;5007918;28;114012;-74
2021/03/08 12:43:03;;;;;;;;;17.00;13.00;;;;;;;;5012221;27;112735;-72
2021/03/08 12:45:29;;;;;;;;;15.50;15.50;;;;;;;;5001411;28;114081;-72
2021/03/08 12:47:55;;;;;;;;;18.75;15.50;;;;;;;;5002990;27;112657;-79
2021/03/08 12:50:21;;;;;;;;;21.00;18.00;;;;;;;;5001817;28;113957;-74
2021/03/08 12:52:47;;;;;;;;;15.50;13.25;;;;;;;;5000439;28;113974;-72
2021/03/08 12:55:13;;;;;;;;;15.75;14.50;;;;;;;;5009657;28;112121;-72
2021/03/08 12:57:39;;;;;;;;;17.25;16.00;;;;;;;;5007139;27;113677;-73
2021/03/08 13:00:07;;;;;;;;;17.75;12.25;;;;;;;;5004099;28;114278;-73
2021/03/08 13:02:33;;;;;;;;;13.00;12.50;;;;;;;;5009103;27;112644;-77
2021/03/08 13:04:59;;;;;;;;;19.00;15.75;;;;;;;;5008117;28;113868;-71
2021/03/08 13:07:25;;;;;;;;;13.25;13.00;;;;;;;;5005741;28;112855;-85
2021/03/08 13:09:51;;;;;;;;;14.50;11.25;;;;;;;;5006033;28;113502;-73
2021/03/08 13:12:17;;;;;;;;;10.50;9.75;;;;;;;;5001282;28;114042;-72
2021/03/08 13:14:45;;;;;;;;;16.75;12.50;;;;;;;;5009483;28;112253;-71
2021/03/08 13:17:12;;;;;;;;;12.75;10.25;;;;;;;;5005782;27;113862;-72
2021/03/08 13:19:38;;;;;;;;;11.00;9.00;;;;;;;;5007319;28;114287;-72
2021/03/08 13:22:04;;;;;;;;;14.00;12.25;;;;;;;;5008055;28;112025;-71
2021/03/08 13:24:30;;;;;;;;;11.50;11.00;;;;;;;;5007682;28;114061;-72
2021/03/08 13:26:57;;;;;;;;;11.50;10.00;;;;;;;;5010835;27;113096;-72
2021/03/08 13:29:23;;;;;;;;;11.25;7.75;;;;;;;;5006827;28;113446;-72
2021/03/08 13:31:49;;;;;;;;;9.00;8.00;;;;;;;;5002273;27;113221;-72
2021/03/08 13:34:16;;;;;;;;;8.50;7.75;;;;;;;;5006098;27;111966;-69
2021/03/08 13:36:42;;;;;;;;;9.25;6.75;;;;;;;;5008697;28;113608;-70
2021/03/08 13:39:09;;;;;;;;;11.50;9.75;;;;;;;;5003376;28;113277;-70
2021/03/08 13:41:35;;;;;;;;;6.00;6.00;;;;;;;;5007847;28;111848;-71
2021/03/08 13:44:01;;;;;;;;;8.50;7.50;;;;;;;;5008077;27;113700;-71
2021/03/08 13:46:27;;;;;;;;;8.50;6.00;;;;;;;;5008741;28;114106;-72
2021/03/08 13:48:53;;;;;;;;;8.50;7.75;;;;;;;;5008987;27;115025;-72
2021/03/08 13:51:20;;;;;;;;;6.50;6.50;;;;;;;;5009219;28;114061;-72
2021/03/08 13:53:46;;;;;;;;;11.75;9.00;;;;;;;;5005462;27;112152;-69
2021/03/08 13:56:12;;;;;;;;;9.25;8.75;;;;;;;;5007802;28;113989;-72
2021/03/08 13:58:38;;;;;;;;;9.75;8.00;;;;;;;;5006138;27;113971;-70
2021/03/08 14:01:03;;;;;;;;;11.25;8.50;;;;;;;;5007206;28;112120;-70
2021/03/08 14:03:29;;;;;;;;;9.00;9.00;;;;;;;;5007653;27;113482;-70
2021/03/08 14:05:55;;;;;;;;;14.50;9.00;;;;;;;;4997493;28;113891;-71
2021/03/08 14:08:22;;;;;;;;;11.50;9.25;;;;;;;;5007534;28;111947;-72
2021/03/08 14:10:49;;;;;;;;;13.75;9.75;;;;;;;;4998990;28;113100;-70
2021/03/08 14:13:15;;;;;;;;;10.50;8.00;;;;;;;;5007833;28;112379;-71
2021/03/08 14:15:41;;;;;;;;;9.00;9.00;;;;;;;;5003454;27;114098;-73
2021/03/08 14:18:07;;;;;;;;;8.50;8.00;;;;;;;;5005394;28;113953;-70
2021/03/08 14:20:33;;;;;;;;;9.50;8.50;;;;;;;;5004836;27;112396;-71
2021/03/08 14:22:59;;;;;;;;;8.75;7.75;;;;;;;;5004644;28;113366;-70
2021/03/08 14:25:26;;;;;;;;;10.75;9.50;;;;;;;;5005924;27;114524;-69
2021/03/08 14:27:54;;;;;;;;;9.00;8.75;;;;;;;;5004040;28;112593;-70
2021/03/08 14:30:21;;;;;;;;;11.50;8.75;;;;;;;;5010338;27;113444;-68
2021/03/08 14:32:47;;;;;;;;;23.50;19.50;;;;;;;;5003576;28;112048;-69
2021/03/08 14:35:13;;;;;;;;;8.50;6.00;;;;;;;;5006516;28;113952;-71
2021/03/08 14:37:39;;;;;;;;;8.75;7.50;;;;;;;;5002803;27;114237;-71
2021/03/08 14:40:06;;;;;;;;;7.25;6.75;;;;;;;;5006355;28;112190;-71
2021/03/08 14:42:33;;;;;;;;;11.00;7.50;;;;;;;;5005769;27;114539;-71
2021/03/08 14:45:01;;;;;;;;;7.50;7.25;;;;;;;;5002783;28;114461;-71
2021/03/08 14:47:27;;;;;;;;;9.00;8.00;;;;;;;;5006303;27;112339;-72
2021/03/08 14:49:53;;;;;;;;;9.75;7.25;;;;;;;;5001853;28;113680;-71
2021/03/08 14:52:19;;;;;;;;;7.75;7.00;;;;;;;;5009867;28;114077;-69
2021/03/08 14:54:45;;;;;;;;;9.25;9.00;;;;;;;;4997031;28;114186;-71
2021/03/08 14:57:11;;;;;;;;;8.00;8.00;;;;;;;;5005410;28;114101;-71
2021/03/08 14:59:40;;;;;;;;;9.75;8.00;;;;;;;;5003176;27;112261;-72
2021/03/08 15:02:07;;;;;;;;;14.00;9.25;;;;;;;;5006133;28;113517;-69
2021/03/08 15:04:33;;;;;;;;;13.25;11.25;;;;;;;;4997435;28;114187;-68
2021/03/08 15:06:59;;;;;;;;;9.00;8.50;;;;;;;;5000435;27;111945;-68
2021/03/08 15:09:25;;;;;;;;;8.50;7.25;;;;;;;;5005814;27;113447;-69
2021/03/08 15:11:51;;;;;;;;;10.25;9.00;;;;;;;;5001780;28;114104;-70
2021/03/08 15:14:16;;;;;;;;;13.00;11.00;;;;;;;;5010788;27;112344;-70
2021/03/08 15:16:45;;;;;;;;;11.00;7.50;;;;;;;;4996638;28;113087;-73
2021/03/08 15:19:11;;;;;;;;;11.50;9.00;;;;;;;;5006063;28;111961;-71
2021/03/08 15:21:37;;;;;;;;;11.75;11.25;;;;;;;;5001510;27;113593;-72
2021/03/08 15:24:03;;;;;;;;;12.00;9.75;;;;;;;;5004281;27;113749;-70
2021/03/08 15:26:29;;;;;;;;;16.25;12.00;;;;;;;;5000009;28;112130;-72
2021/03/08 15:28:55;;;;;;;;;12.75;11.00;;;;;;;;5004675;27;113486;-71
2021/03/08 15:31:21;;;;;;;;;4.50;2.00;;;;;;;;5002515;28;113915;-72
2021/03/08 15:33:49;;;;;;;;;12.75;12.75;;;;;;;;5009511;27;111980;-72
2021/03/08 15:36:15;;;;;;;;;10.50;9.50;;;;;;;;4998029;28;114279;-71
2021/03/08 15:38:41;;;;;;;;;13.50;13.00;;;;;;;;5005273;28;112099;-71
2021/03/08 15:41:07;;;;;;;;;15.50;13.00;;;;;;;;5003709;27;113906;-71
2021/03/08 15:43:33;;;;;;;;;11.50;11.25;;;;;;;;5003747;28;115227;-73
2021/03/08 15:45:59;;;;;;;;;11.25;11.25;;;;;;;;5003709;27;114498;-72
2021/03/08 15:48:24;;;;;;;;;14.25;13.00;;;;;;;;5003006;28;113996;-74
2021/03/08 15:50:51;;;;;;;;;12.50;11.25;;;;;;;;5004302;28;115212;-72
2021/03/08 15:53:17;;;;;;;;;15.00;13.75;;;;;;;;5002700;28;111822;-72
2021/03/08 15:55:43;;;;;;;;;14.50;13.75;;;;;;;;5009014;28;113497;-73
2021/03/08 15:58:09;;;;;;;;;18.25;15.25;;;;;;;;5003439;27;113568;-72
2021/03/08 16:00:35;;;;;;;;;16.00;14.25;;;;;;;;5003464;28;113346;-72
2021/03/08 16:03:01;;;;;;;;;0.00;0.00;;;;;;;;5006229;28;114081;-73
2021/03/08 16:05:27;;;;;;;;;15.00;15.00;;;;;;;;5007386;28;112192;-73
2021/03/08 16:07:54;;;;;;;;;16.25;15.25;;;;;;;;5009203;27;113925;-73
2021/03/08 16:10:20;;;;;;;;;18.00;16.75;;;;;;;;5005003;28;114613;-74
2021/03/08 16:12:46;;;;;;;;;16.25;16.25;;;;;;;;5008517;27;112009;-74
2021/03/08 16:15:13;;;;;;;;;16.25;16.00;;;;;;;;5006245;27;113115;-73
2021/03/08 16:17:39;;;;;;;;;22.00;21.25;;;;;;;;5010950;28;115080;-76
2021/03/08 16:20:05;;;;;;;;;20.00;19.75;;;;;;;;5003403;27;113273;-71
2021/03/08 16:22:31;;;;;;;;;18.25;18.25;;;;;;;;5006260;27;114297;-67
2021/03/08 16:24:58;;;;;;;;;21.75;18.25;;;;;;;;5002428;28;112357;-67
2021/03/08 16:27:24;;;;;;;;;18.75;18.75;;;;;;;;5008248;28;113478;-67
2021/03/08 16:29:50;;;;;;;;;25.50;22.75;;;;;;;;5004003;28;114285;-66
2021/03/08 16:32:16;;;;;;;;;21.50;18.50;;;;;;;;5008933;27;112969;-68
2021/03/08 16:34:42;;;;;;;;;23.25;21.25;;;;;;;;5004911;27;113438;-66
2021/03/08 16:37:08;;;;;;;;;22.75;18.50;;;;;;;;5006918;28;114318;-69